createdAt,value
2018-06-19T00:00:05.429Z,1015.11
2018-06-19T00:01:05.425Z,1015.10
2018-06-19T00:02:05.497Z,1015.07
2018-06-19T00:03:05.456Z,1015.06
2018-06-19T00:04:05.496Z,1015.08
2018-06-19T00:05:05.538Z,1015.07
2018-06-19T00:06:05.522Z,1015.09
2018-06-19T00:07:05.534Z,1015.07
2018-06-19T00:08:05.533Z,1015.11
2018-06-19T00:09:05.543Z,1015.09
2018-06-19T00:10:05.575Z,1015.10
2018-06-19T00:11:05.572Z,1015.11
2018-06-19T00:12:05.633Z,1015.08
2018-06-19T00:13:05.607Z,1015.07
2018-06-19T00:14:05.608Z,1015.08
2018-06-19T00:15:05.653Z,1015.10
2018-06-19T00:16:05.642Z,1015.06
2018-06-19T00:17:05.688Z,1015.14
2018-06-19T00:18:05.702Z,1015.12
2018-06-19T00:19:05.683Z,1015.10
2018-06-19T00:20:05.722Z,1015.08
2018-06-19T00:21:05.732Z,1015.04
2018-06-19T00:22:05.778Z,1015.07
2018-06-19T00:23:05.741Z,1015.07
2018-06-19T00:24:05.759Z,1015.09
2018-06-19T00:25:05.786Z,1015.05
2018-06-19T00:26:05.803Z,1015.06
2018-06-19T00:27:05.843Z,1015.04
2018-06-19T00:28:05.831Z,1015.09
2018-06-19T00:29:05.832Z,1015.10
2018-06-19T00:30:05.925Z,1015.08
2018-06-19T00:31:05.855Z,1015.10
2018-06-19T00:32:05.939Z,1015.04
2018-06-19T00:33:05.889Z,1015.03
2018-06-19T00:34:05.931Z,1015.02
2018-06-19T00:35:05.911Z,1015.05
2018-06-19T00:36:05.923Z,1015.08
2018-06-19T00:37:05.994Z,1015.05
2018-06-19T00:38:06.010Z,1015.06
2018-06-19T00:39:05.984Z,1015.07
2018-06-19T00:40:05.998Z,1015.06
2018-06-19T00:41:06.045Z,1015.05
2018-06-19T00:42:06.034Z,1015.07
2018-06-19T00:43:06.026Z,1015.05
2018-06-19T00:44:06.040Z,1015.04
2018-06-19T00:45:06.113Z,1015.03
2018-06-19T00:46:06.109Z,1015.09
2018-06-19T00:47:06.128Z,1015.02
2018-06-19T00:48:06.116Z,1015.00
2018-06-19T00:49:06.118Z,1015.02
2018-06-19T00:50:06.139Z,1015.02
2018-06-19T00:51:06.146Z,1015.01
2018-06-19T00:52:06.207Z,1014.98
2018-06-19T00:53:06.227Z,1015.00
2018-06-19T00:54:06.184Z,1015.00
2018-06-19T00:55:06.204Z,1014.97
2018-06-19T00:56:06.229Z,1014.99
2018-06-19T00:57:06.228Z,1014.97
2018-06-19T00:58:06.279Z,1014.93
2018-06-19T00:59:06.319Z,1014.96
2018-06-19T01:00:06.342Z,1014.94
2018-06-19T01:01:06.318Z,1014.97
2018-06-19T01:02:06.310Z,1014.96
2018-06-19T01:03:06.317Z,1014.94
2018-06-19T01:04:06.330Z,1014.89
2018-06-19T01:05:06.427Z,1014.94
2018-06-19T01:06:06.360Z,1014.91
2018-06-19T01:07:06.375Z,1014.91
2018-06-19T01:08:06.406Z,1014.89
2018-06-19T01:09:06.430Z,1014.89
2018-06-19T01:10:06.455Z,1014.91
2018-06-19T01:11:06.481Z,1014.91
2018-06-19T01:12:06.488Z,1014.90
2018-06-19T01:13:06.460Z,1014.87
2018-06-19T01:14:06.485Z,1014.88
2018-06-19T01:15:06.531Z,1014.87
2018-06-19T01:16:06.504Z,1014.87
2018-06-19T01:17:06.644Z,1014.89
2018-06-19T01:18:06.575Z,1014.92
2018-06-19T01:19:06.582Z,1014.95
2018-06-19T01:20:06.557Z,1014.94
2018-06-19T01:21:06.578Z,1014.96
2018-06-19T01:22:06.591Z,1014.96
2018-06-19T01:23:06.623Z,1014.99
2018-06-19T01:24:06.654Z,1014.98
2018-06-19T01:25:06.651Z,1015.00
2018-06-19T01:26:06.653Z,1015.02
2018-06-19T01:27:06.660Z,1014.97
2018-06-19T01:28:06.687Z,1014.97
2018-06-19T01:29:06.766Z,1015.02
2018-06-19T01:30:06.727Z,1015.02
2018-06-19T01:31:06.713Z,1015.01
2018-06-19T01:32:06.729Z,1015.01
2018-06-19T01:33:06.747Z,1015.00
2018-06-19T01:34:06.792Z,1015.00
2018-06-19T01:35:06.852Z,1014.99
2018-06-19T01:36:06.802Z,1014.95
2018-06-19T01:37:06.807Z,1014.97
2018-06-19T01:38:06.837Z,1014.95
2018-06-19T01:39:06.835Z,1014.95
2018-06-19T01:40:06.876Z,1014.94
2018-06-19T01:41:06.918Z,1014.97
2018-06-19T01:42:06.875Z,1014.98
2018-06-19T01:43:06.897Z,1014.99
2018-06-19T01:44:06.908Z,1014.96
2018-06-19T01:45:06.918Z,1014.96
2018-06-19T01:46:06.986Z,1014.96
2018-06-19T01:47:06.956Z,1014.94
2018-06-19T01:48:06.969Z,1014.98
2018-06-19T01:49:06.991Z,1014.91
2018-06-19T01:50:07.015Z,1014.93
2018-06-19T01:51:07.033Z,1014.94
2018-06-19T01:52:07.034Z,1014.91
2018-06-19T01:53:07.059Z,1014.88
2018-06-19T01:54:07.041Z,1014.91
2018-06-19T01:55:07.088Z,1014.87
2018-06-19T01:56:07.071Z,1014.89
2018-06-19T01:57:07.091Z,1014.85
2018-06-19T01:58:07.153Z,1014.82
2018-06-19T01:59:07.158Z,1014.81
2018-06-19T02:00:07.151Z,1014.83
2018-06-19T02:01:07.159Z,1014.81
2018-06-19T02:02:07.172Z,1014.81
2018-06-19T02:03:07.195Z,1014.82
2018-06-19T02:04:07.277Z,1014.81
2018-06-19T02:05:07.211Z,1014.81
2018-06-19T02:06:07.212Z,1014.81
2018-06-19T02:07:07.227Z,1014.83
2018-06-19T02:08:07.248Z,1014.80
2018-06-19T02:09:07.338Z,1014.75
2018-06-19T02:10:07.322Z,1014.75
2018-06-19T02:11:07.314Z,1014.77
2018-06-19T02:12:07.309Z,1014.77
2018-06-19T02:13:07.313Z,1014.76
2018-06-19T02:14:07.324Z,1014.76
2018-06-19T02:15:07.363Z,1014.78
2018-06-19T02:16:07.388Z,1014.77
2018-06-19T02:17:07.371Z,1014.74
2018-06-19T02:18:07.384Z,1014.75
2018-06-19T02:19:07.402Z,1014.77
2018-06-19T02:20:07.417Z,1014.77
2018-06-19T02:21:07.506Z,1014.81
2018-06-19T02:22:07.445Z,1014.79
2018-06-19T02:23:07.468Z,1014.80
2018-06-19T02:24:07.472Z,1014.84
2018-06-19T02:25:07.486Z,1014.82
2018-06-19T02:26:07.531Z,1014.84
2018-06-19T02:27:07.538Z,1014.83
2018-06-19T02:28:07.563Z,1014.82
2018-06-19T02:29:07.550Z,1014.84
2018-06-19T02:30:07.565Z,1014.84
2018-06-19T02:31:07.564Z,1014.82
2018-06-19T02:32:07.581Z,1014.83
2018-06-19T02:33:07.624Z,1014.81
2018-06-19T02:34:07.613Z,1014.87
2018-06-19T02:35:07.674Z,1014.88
2018-06-19T02:36:07.667Z,1014.86
2018-06-19T02:37:07.691Z,1014.86
2018-06-19T02:38:07.666Z,1014.87
2018-06-19T02:39:07.682Z,1014.89
2018-06-19T02:40:07.722Z,1014.87
2018-06-19T02:41:07.744Z,1014.88
2018-06-19T02:42:07.720Z,1014.89
2018-06-19T02:43:07.745Z,1014.91
2018-06-19T02:44:07.779Z,1014.91
2018-06-19T02:45:07.780Z,1014.86
2018-06-19T02:46:07.900Z,1014.88
2018-06-19T02:47:07.805Z,1014.86
2018-06-19T02:48:07.807Z,1014.88
2018-06-19T02:49:07.822Z,1014.89
2018-06-19T02:50:07.838Z,1014.88
2018-06-19T02:51:07.876Z,1014.87
2018-06-19T02:52:07.873Z,1014.85
2018-06-19T02:53:07.931Z,1014.85
2018-06-19T02:54:07.906Z,1014.83
2018-06-19T02:55:07.916Z,1014.84
2018-06-19T02:56:07.925Z,1014.81
2018-06-19T02:57:07.937Z,1014.86
2018-06-19T02:58:07.975Z,1014.86
2018-06-19T02:59:08.023Z,1014.87
2018-06-19T03:00:07.997Z,1014.87
2018-06-19T03:01:07.994Z,1014.83
2018-06-19T03:02:07.999Z,1014.82
2018-06-19T03:03:08.020Z,1014.86
2018-06-19T03:04:08.062Z,1014.87
2018-06-19T03:05:08.071Z,1014.94
2018-06-19T03:06:08.075Z,1014.91
2018-06-19T03:07:08.075Z,1014.93
2018-06-19T03:08:08.090Z,1014.96
2018-06-19T03:09:08.187Z,1014.96
2018-06-19T03:10:08.107Z,1014.98
2018-06-19T03:11:08.135Z,1014.96
2018-06-19T03:12:08.144Z,1014.98
2018-06-19T03:13:08.155Z,1014.98
2018-06-19T03:14:08.192Z,1014.97
2018-06-19T03:15:08.236Z,1015.01
2018-06-19T03:16:08.259Z,1015.02
2018-06-19T03:17:08.222Z,1015.04
2018-06-19T03:18:08.242Z,1015.02
2018-06-19T03:19:08.247Z,1015.06
2018-06-19T03:20:08.298Z,1015.03
2018-06-19T03:21:08.261Z,1015.06
2018-06-19T03:22:08.279Z,1015.07
2018-06-19T03:23:08.292Z,1015.07
2018-06-19T03:24:08.309Z,1015.09
2018-06-19T03:25:08.362Z,1015.10
2018-06-19T03:26:08.342Z,1015.12
2018-06-19T03:27:08.349Z,1015.15
2018-06-19T03:28:08.365Z,1015.15
2018-06-19T03:29:08.391Z,1015.17
2018-06-19T03:30:08.447Z,1015.19
2018-06-19T03:31:08.403Z,1015.19
2018-06-19T03:32:08.478Z,1015.15
2018-06-19T03:33:08.443Z,1015.21
2018-06-19T03:34:08.460Z,1015.21
2018-06-19T03:35:08.464Z,1015.29
2018-06-19T03:36:08.483Z,1015.26
2018-06-19T03:37:08.537Z,1015.23
2018-06-19T03:38:08.504Z,1015.24
2018-06-19T03:39:08.555Z,1015.33
2018-06-19T03:40:08.561Z,1015.33
2018-06-19T03:41:08.556Z,1015.30
2018-06-19T03:42:08.575Z,1015.32
2018-06-19T03:43:08.606Z,1015.37
2018-06-19T03:44:08.638Z,1015.40
2018-06-19T03:45:08.601Z,1015.37
2018-06-19T03:46:08.747Z,1015.39
2018-06-19T03:47:08.642Z,1015.40
2018-06-19T03:48:08.654Z,1015.41
2018-06-19T03:49:08.664Z,1015.45
2018-06-19T03:50:08.670Z,1015.47
2018-06-19T03:51:08.690Z,1015.45
2018-06-19T03:52:08.737Z,1015.51
2018-06-19T03:53:08.714Z,1015.49
2018-06-19T03:54:08.749Z,1015.51
2018-06-19T03:55:08.747Z,1015.53
2018-06-19T03:56:08.762Z,1015.57
2018-06-19T03:57:08.800Z,1015.62
2018-06-19T03:58:08.826Z,1015.63
2018-06-19T03:59:08.802Z,1015.67
2018-06-19T04:00:08.809Z,1015.70
2018-06-19T04:01:08.827Z,1015.67
2018-06-19T04:02:08.840Z,1015.66
2018-06-19T04:03:08.953Z,1015.64
2018-06-19T04:04:08.872Z,1015.64
2018-06-19T04:05:08.878Z,1015.62
2018-06-19T04:06:08.913Z,1015.59
2018-06-19T04:07:08.907Z,1015.60
2018-06-19T04:08:08.975Z,1015.58
2018-06-19T04:09:08.943Z,1015.58
2018-06-19T04:10:08.954Z,1015.59
2018-06-19T04:11:08.968Z,1015.61
2018-06-19T04:12:08.974Z,1015.59
2018-06-19T04:13:09.133Z,1015.62
2018-06-19T04:14:09.038Z,1015.61
2018-06-19T04:15:09.033Z,1015.54
2018-06-19T04:16:09.094Z,1015.58
2018-06-19T04:17:09.049Z,1015.61
2018-06-19T04:18:09.068Z,1015.59
2018-06-19T04:19:09.083Z,1015.62
2018-06-19T04:20:09.084Z,1015.62
2018-06-19T04:21:09.171Z,1015.68
2018-06-19T04:22:09.133Z,1015.65
2018-06-19T04:23:09.136Z,1015.66
2018-06-19T04:24:09.139Z,1015.66
2018-06-19T04:25:09.153Z,1015.57
2018-06-19T04:26:09.205Z,1015.63
2018-06-19T04:27:09.205Z,1015.67
2018-06-19T04:28:09.235Z,1015.68
2018-06-19T04:29:09.222Z,1015.66
2018-06-19T04:30:09.228Z,1015.65
2018-06-19T04:31:09.235Z,1015.65
2018-06-19T04:32:09.260Z,1015.70
2018-06-19T04:33:09.289Z,1015.71
2018-06-19T04:34:09.312Z,1015.67
2018-06-19T04:35:09.293Z,1015.67
2018-06-19T04:36:09.300Z,1015.69
2018-06-19T04:37:09.320Z,1015.72
2018-06-19T04:38:09.331Z,1015.66
2018-06-19T04:39:09.374Z,1015.67
2018-06-19T04:40:09.356Z,1015.70
2018-06-19T04:41:09.366Z,1015.70
2018-06-19T04:42:09.479Z,1015.71
2018-06-19T04:43:09.412Z,1015.70
2018-06-19T04:44:09.421Z,1015.71
2018-06-19T04:45:09.430Z,1015.71
2018-06-19T04:46:09.459Z,1015.72
2018-06-19T04:47:09.481Z,1015.64
2018-06-19T04:48:09.475Z,1015.71
2018-06-19T04:49:09.476Z,1015.66
2018-06-19T04:50:09.502Z,1015.65
2018-06-19T04:51:09.534Z,1015.68
2018-06-19T04:52:09.558Z,1015.73
2018-06-19T04:53:09.534Z,1015.71
2018-06-19T04:54:09.553Z,1015.72
2018-06-19T04:55:09.561Z,1015.67
2018-06-19T04:56:09.649Z,1015.72
2018-06-19T04:57:09.618Z,1015.67
2018-06-19T04:58:09.639Z,1015.68
2018-06-19T04:59:09.639Z,1015.66
2018-06-19T05:00:09.652Z,1015.68
2018-06-19T05:01:09.658Z,1015.70
2018-06-19T05:02:09.669Z,1015.70
2018-06-19T05:03:09.744Z,1015.71
2018-06-19T05:04:09.688Z,1015.74
2018-06-19T05:05:09.706Z,1015.76
2018-06-19T05:06:09.741Z,1015.77
2018-06-19T05:07:09.726Z,1015.77
2018-06-19T05:08:09.782Z,1015.73
2018-06-19T05:09:09.758Z,1015.76
2018-06-19T05:10:09.782Z,1015.81
2018-06-19T05:11:09.835Z,1015.82
2018-06-19T05:12:09.794Z,1015.82
2018-06-19T05:13:09.819Z,1015.79
2018-06-19T05:14:09.851Z,1015.78
2018-06-19T05:15:09.849Z,1015.81
2018-06-19T05:16:09.895Z,1015.79
2018-06-19T05:17:09.864Z,1015.82
2018-06-19T05:18:09.887Z,1015.86
2018-06-19T05:19:09.893Z,1015.88
2018-06-19T05:20:09.965Z,1015.84
2018-06-19T05:21:09.947Z,1015.88
2018-06-19T05:22:09.959Z,1015.90
2018-06-19T05:23:09.951Z,1015.89
2018-06-19T05:24:09.961Z,1015.90
2018-06-19T05:25:09.978Z,1015.94
2018-06-19T05:26:09.995Z,1015.94
2018-06-19T05:27:10.039Z,1015.98
2018-06-19T05:28:10.028Z,1015.92
2018-06-19T05:29:10.036Z,1015.86
2018-06-19T05:30:10.045Z,1015.91
2018-06-19T05:31:10.073Z,1015.91
2018-06-19T05:32:10.128Z,1015.89
2018-06-19T05:33:10.088Z,1015.93
2018-06-19T05:34:10.156Z,1015.95
2018-06-19T05:35:10.118Z,1015.96
2018-06-19T05:36:10.131Z,1015.97
2018-06-19T05:37:10.146Z,1015.95
2018-06-19T05:38:10.169Z,1016.02
2018-06-19T05:39:10.226Z,1015.98
2018-06-19T05:40:10.184Z,1015.99
2018-06-19T05:41:10.221Z,1015.98
2018-06-19T05:42:10.215Z,1015.99
2018-06-19T05:43:10.229Z,1015.95
2018-06-19T05:44:10.291Z,1015.98
2018-06-19T05:45:10.287Z,1015.96
2018-06-19T05:46:10.283Z,1015.96
2018-06-19T05:47:10.289Z,1016.02
2018-06-19T05:48:10.297Z,1015.98
2018-06-19T05:49:10.347Z,1015.99
2018-06-19T05:50:10.332Z,1016.00
2018-06-19T05:51:10.373Z,1016.03
2018-06-19T05:52:10.354Z,1016.08
2018-06-19T05:53:10.393Z,1016.15
2018-06-19T05:54:10.408Z,1016.18
2018-06-19T05:55:10.425Z,1016.16
2018-06-19T05:56:10.435Z,1016.15
2018-06-19T05:57:10.420Z,1016.21
2018-06-19T05:58:10.449Z,1016.14
2018-06-19T05:59:10.481Z,1016.21
2018-06-19T06:00:10.543Z,1016.21
2018-06-19T06:01:10.487Z,1016.19
2018-06-19T06:02:10.529Z,1016.25
2018-06-19T06:03:10.512Z,1016.24
2018-06-19T06:04:10.556Z,1016.24
2018-06-19T06:05:10.537Z,1016.29
2018-06-19T06:06:10.556Z,1016.25
2018-06-19T06:07:10.581Z,1016.19
2018-06-19T06:08:10.587Z,1016.24
2018-06-19T06:09:10.633Z,1016.23
2018-06-19T06:10:10.641Z,1016.22
2018-06-19T06:11:10.654Z,1016.24
2018-06-19T06:12:10.642Z,1016.24
2018-06-19T06:13:10.652Z,1016.23
2018-06-19T06:14:10.673Z,1016.26
2018-06-19T06:15:10.705Z,1016.29
2018-06-19T06:16:10.726Z,1016.29
2018-06-19T06:17:10.716Z,1016.28
2018-06-19T06:18:10.721Z,1016.26
2018-06-19T06:19:10.781Z,1016.27
2018-06-19T06:20:10.767Z,1016.29
2018-06-19T06:21:10.775Z,1016.29
2018-06-19T06:22:10.832Z,1016.35
2018-06-19T06:23:10.802Z,1016.35
2018-06-19T06:24:10.843Z,1016.44
2018-06-19T06:25:10.824Z,1016.51
2018-06-19T06:26:10.847Z,1016.33
2018-06-19T06:27:10.867Z,1016.39
2018-06-19T06:28:10.865Z,1016.39
2018-06-19T06:29:10.907Z,1016.39
2018-06-19T06:30:10.900Z,1016.37
2018-06-19T06:31:10.943Z,1016.51
2018-06-19T06:32:10.926Z,1016.53
2018-06-19T06:33:10.971Z,1016.54
2018-06-19T06:34:10.957Z,1016.52
2018-06-19T06:35:10.970Z,1016.62
2018-06-19T06:36:11.010Z,1016.76
2018-06-19T06:37:10.997Z,1016.42
2018-06-19T06:38:11.074Z,1016.36
2018-06-19T06:39:11.040Z,1016.59
2018-06-19T06:40:11.049Z,1016.53
2018-06-19T06:41:11.062Z,1016.46
2018-06-19T06:42:11.072Z,1016.47
2018-06-19T06:43:11.172Z,1016.47
2018-06-19T06:44:11.128Z,1016.45
2018-06-19T06:45:11.155Z,1016.43
2018-06-19T06:46:11.127Z,1016.40
2018-06-19T06:47:11.138Z,1016.41
2018-06-19T06:48:11.177Z,1016.41
2018-06-19T06:49:11.175Z,1016.40
2018-06-19T06:50:11.229Z,1016.32
2018-06-19T06:51:11.208Z,1016.32
2018-06-19T06:52:11.250Z,1016.33
2018-06-19T06:53:11.232Z,1016.38
2018-06-19T06:54:11.251Z,1016.32
2018-06-19T06:55:11.273Z,1016.35
2018-06-19T06:56:11.289Z,1016.35
2018-06-19T06:57:11.328Z,1016.31
2018-06-19T06:58:11.339Z,1016.23
2018-06-19T06:59:11.357Z,1016.27
2018-06-19T07:00:11.351Z,1016.28
2018-06-19T07:01:11.363Z,1016.34
2018-06-19T07:02:11.412Z,1016.30
2018-06-19T07:03:11.399Z,1016.38
2018-06-19T07:04:11.496Z,1016.33
2018-06-19T07:05:11.420Z,1016.41
2018-06-19T07:06:11.439Z,1016.39
2018-06-19T07:07:11.454Z,1016.40
2018-06-19T07:08:11.471Z,1016.36
2018-06-19T07:09:11.513Z,1016.39
2018-06-19T07:10:11.599Z,1016.40
2018-06-19T07:11:11.551Z,1016.37
2018-06-19T07:12:11.541Z,1016.37
2018-06-19T07:13:11.569Z,1016.30
2018-06-19T07:14:11.560Z,1016.35
2018-06-19T07:15:11.590Z,1016.34
2018-06-19T07:16:11.665Z,1016.33
2018-06-19T07:17:11.648Z,1016.30
2018-06-19T07:18:11.650Z,1016.33
2018-06-19T07:19:11.777Z,1016.37
2018-06-19T07:20:11.653Z,1016.31
2018-06-19T07:21:11.671Z,1016.29
2018-06-19T07:22:11.721Z,1016.34
2018-06-19T07:23:11.705Z,1016.35
2018-06-19T07:24:11.731Z,1016.31
2018-06-19T07:25:11.732Z,1016.32
2018-06-19T07:26:11.802Z,1016.33
2018-06-19T07:27:11.794Z,1016.27
2018-06-19T07:28:11.783Z,1016.27
2018-06-19T07:29:11.802Z,1016.22
2018-06-19T07:30:11.838Z,1016.31
2018-06-19T07:31:11.824Z,1016.34
2018-06-19T07:32:11.835Z,1016.33
2018-06-19T07:33:11.882Z,1016.30
2018-06-19T07:34:11.951Z,1016.31
2018-06-19T07:35:11.901Z,1016.35
2018-06-19T07:36:11.899Z,1016.34
2018-06-19T07:37:11.918Z,1016.38
2018-06-19T07:38:12.132Z,1016.39
2018-06-19T07:39:11.986Z,1016.38
2018-06-19T07:40:12.032Z,1016.44
2018-06-19T07:41:12.030Z,1016.43
2018-06-19T07:42:11.993Z,1016.45
2018-06-19T07:43:12.031Z,1016.43
2018-06-19T07:44:12.019Z,1016.47
2018-06-19T07:45:12.122Z,1016.43
2018-06-19T07:46:12.073Z,1016.48
2018-06-19T07:47:12.103Z,1016.41
2018-06-19T07:48:12.083Z,1016.39
2018-06-19T07:49:12.095Z,1016.34
2018-06-19T07:50:12.117Z,1016.32
2018-06-19T07:51:12.130Z,1016.33
2018-06-19T07:52:12.182Z,1016.36
2018-06-19T07:53:12.170Z,1016.38
2018-06-19T07:54:12.174Z,1016.45
2018-06-19T07:55:12.195Z,1016.41
2018-06-19T07:56:12.200Z,1016.45
2018-06-19T07:57:12.303Z,1016.40
2018-06-19T07:58:12.237Z,1016.41
2018-06-19T07:59:12.271Z,1016.42
2018-06-19T08:00:12.263Z,1016.45
2018-06-19T08:01:12.276Z,1016.41
2018-06-19T08:02:12.324Z,1016.41
2018-06-19T08:03:12.329Z,1016.42
2018-06-19T08:04:12.315Z,1016.42
2018-06-19T08:05:12.385Z,1016.41
2018-06-19T08:06:12.365Z,1016.48
2018-06-19T08:07:12.364Z,1016.44
2018-06-19T08:08:12.426Z,1016.44
2018-06-19T08:09:12.405Z,1016.50
2018-06-19T08:10:12.439Z,1016.51
2018-06-19T08:11:12.459Z,1016.46
2018-06-19T08:12:12.482Z,1016.48
2018-06-19T08:13:12.489Z,1016.46
2018-06-19T08:14:12.482Z,1016.50
2018-06-19T08:15:12.489Z,1016.54
2018-06-19T08:16:12.510Z,1016.58
2018-06-19T08:17:12.558Z,1016.54
2018-06-19T08:18:12.577Z,1016.53
2018-06-19T08:19:12.549Z,1016.53
2018-06-19T08:20:12.570Z,1016.53
2018-06-19T08:21:12.584Z,1016.53
2018-06-19T08:22:12.596Z,1016.55
2018-06-19T08:23:12.649Z,1016.49
2018-06-19T08:24:12.649Z,1016.55
2018-06-19T08:25:12.675Z,1016.56
2018-06-19T08:26:12.746Z,1016.49
2018-06-19T08:27:12.665Z,1016.54
2018-06-19T08:28:12.684Z,1016.53
2018-06-19T08:29:12.691Z,1016.48
2018-06-19T08:30:12.776Z,1016.55
2018-06-19T08:31:12.735Z,1016.60
2018-06-19T08:32:12.767Z,1016.62
2018-06-19T08:33:12.765Z,1016.64
2018-06-19T08:34:12.795Z,1016.61
2018-06-19T08:35:12.814Z,1016.59
2018-06-19T08:36:12.916Z,1016.59
2018-06-19T08:37:12.835Z,1016.61
2018-06-19T08:38:12.914Z,1016.57
2018-06-19T08:39:12.880Z,1016.58
2018-06-19T08:40:12.866Z,1016.60
2018-06-19T08:41:13.019Z,1016.57
2018-06-19T08:42:12.899Z,1016.47
2018-06-19T08:43:12.936Z,1016.54
2018-06-19T08:44:12.912Z,1016.53
2018-06-19T08:45:12.967Z,1016.55
2018-06-19T08:46:12.973Z,1016.59
2018-06-19T08:47:12.989Z,1016.58
2018-06-19T08:48:12.970Z,1016.53
2018-06-19T08:49:12.997Z,1016.55
2018-06-19T08:50:13.002Z,1016.60
2018-06-19T08:51:13.031Z,1016.58
2018-06-19T08:52:13.088Z,1016.60
2018-06-19T08:53:13.046Z,1016.58
2018-06-19T08:54:13.097Z,1016.57
2018-06-19T08:55:13.098Z,1016.61
2018-06-19T08:56:13.146Z,1016.57
2018-06-19T08:57:13.131Z,1016.57
2018-06-19T08:58:13.132Z,1016.56
2018-06-19T08:59:13.192Z,1016.56
2018-06-19T09:00:13.218Z,1016.54
2018-06-19T09:01:13.180Z,1016.55
2018-06-19T09:02:13.215Z,1016.56
2018-06-19T09:03:13.204Z,1016.57
2018-06-19T09:04:13.245Z,1016.54
2018-06-19T09:05:13.239Z,1016.48
2018-06-19T09:06:13.249Z,1016.49
2018-06-19T09:07:13.293Z,1016.49
2018-06-19T09:08:13.283Z,1016.58
2018-06-19T09:09:13.310Z,1016.56
2018-06-19T09:10:13.346Z,1016.59
2018-06-19T09:11:13.310Z,1016.54
2018-06-19T09:12:13.336Z,1016.46
2018-06-19T09:13:13.341Z,1016.48
2018-06-19T09:14:13.363Z,1016.47
2018-06-19T09:15:13.399Z,1016.45
2018-06-19T09:16:13.518Z,1016.50
2018-06-19T09:17:13.502Z,1016.50
2018-06-19T09:18:13.449Z,1016.47
2018-06-19T09:19:13.481Z,1016.44
2018-06-19T09:20:13.585Z,1016.47
2018-06-19T09:21:13.469Z,1016.49
2018-06-19T09:22:13.511Z,1016.49
2018-06-19T09:23:13.546Z,1016.44
2018-06-19T09:24:13.527Z,1016.46
2018-06-19T09:25:13.542Z,1016.41
2018-06-19T09:26:13.562Z,1016.42
2018-06-19T09:27:13.566Z,1016.41
2018-06-19T09:28:13.674Z,1016.52
2018-06-19T09:29:13.639Z,1016.45
2018-06-19T09:30:13.623Z,1016.52
2018-06-19T09:31:13.635Z,1016.52
2018-06-19T09:32:13.635Z,1016.54
2018-06-19T09:33:13.669Z,1016.57
2018-06-19T09:34:13.695Z,1016.52
2018-06-19T09:35:13.679Z,1016.57
2018-06-19T09:36:13.696Z,1016.56
2018-06-19T09:37:13.703Z,1016.57
2018-06-19T09:38:13.746Z,1016.62
2018-06-19T09:39:13.931Z,1016.61
2018-06-19T09:40:13.756Z,1016.60
2018-06-19T09:41:13.785Z,1016.51
2018-06-19T09:42:13.791Z,1016.54
2018-06-19T09:43:13.815Z,1016.53
2018-06-19T09:44:13.849Z,1016.52
2018-06-19T09:45:13.930Z,1016.48
2018-06-19T09:46:13.845Z,1016.53
2018-06-19T09:47:13.869Z,1016.48
2018-06-19T09:48:13.876Z,1016.54
2018-06-19T09:49:13.906Z,1016.53
2018-06-19T09:50:13.961Z,1016.56
2018-06-19T09:51:13.956Z,1016.54
2018-06-19T09:52:13.948Z,1016.55
2018-06-19T09:53:13.954Z,1016.50
2018-06-19T09:54:13.978Z,1016.49
2018-06-19T09:55:14.024Z,1016.54
2018-06-19T09:56:14.011Z,1016.51
2018-06-19T09:57:14.062Z,1016.53
2018-06-19T09:58:14.172Z,1016.59
2018-06-19T09:59:14.130Z,1016.50
2018-06-19T10:00:14.109Z,1016.49
2018-06-19T10:01:14.136Z,1016.49
2018-06-19T10:02:14.191Z,1016.46
2018-06-19T10:03:14.147Z,1016.49
2018-06-19T10:04:14.136Z,1016.51
2018-06-19T10:05:14.160Z,1016.52
2018-06-19T10:06:14.162Z,1016.53
2018-06-19T10:07:14.186Z,1016.54
2018-06-19T10:08:14.386Z,1016.52
2018-06-19T10:09:14.236Z,1016.51
2018-06-19T10:10:14.239Z,1016.51
2018-06-19T10:11:14.249Z,1016.50
2018-06-19T10:12:14.410Z,1016.66
2018-06-19T10:13:14.310Z,1016.62
2018-06-19T10:14:14.374Z,1016.61
2018-06-19T10:15:14.350Z,1016.63
2018-06-19T10:16:14.313Z,1016.61
2018-06-19T10:17:14.366Z,1016.64
2018-06-19T10:18:14.413Z,1016.68
2018-06-19T10:19:14.429Z,1016.66
2018-06-19T10:20:14.377Z,1016.67
2018-06-19T10:21:14.397Z,1016.68
2018-06-19T10:22:14.422Z,1016.64
2018-06-19T10:23:14.437Z,1016.66
2018-06-19T10:24:14.470Z,1016.64
2018-06-19T10:25:14.558Z,1016.62
2018-06-19T10:26:14.469Z,1016.71
2018-06-19T10:27:14.795Z,1016.68
2018-06-19T10:28:14.511Z,1016.69
2018-06-19T10:29:14.555Z,1016.67
2018-06-19T10:30:14.541Z,1016.67
2018-06-19T10:31:14.572Z,1016.62
2018-06-19T10:32:14.590Z,1016.71
2018-06-19T10:33:14.646Z,1016.69
2018-06-19T10:34:14.664Z,1016.61
2018-06-19T10:35:14.692Z,1016.62
2018-06-19T10:36:14.648Z,1016.64
2018-06-19T10:37:14.662Z,1016.66
2018-06-19T10:38:14.721Z,1016.63
2018-06-19T10:39:14.726Z,1016.62
2018-06-19T10:40:14.750Z,1016.64
2018-06-19T10:41:14.735Z,1016.60
2018-06-19T10:42:14.798Z,1016.69
2018-06-19T10:43:14.795Z,1016.61
2018-06-19T10:44:14.850Z,1016.66
2018-06-19T10:45:14.916Z,1016.65
2018-06-19T10:46:14.811Z,1016.68
2018-06-19T10:47:14.890Z,1016.63
2018-06-19T10:48:14.838Z,1016.73
2018-06-19T10:49:14.838Z,1016.70
2018-06-19T10:50:14.879Z,1016.72
2018-06-19T10:51:14.919Z,1016.77
2018-06-19T10:52:14.989Z,1016.79
2018-06-19T10:53:14.903Z,1016.80
2018-06-19T10:54:14.984Z,1016.79
2018-06-19T10:55:14.945Z,1016.83
2018-06-19T10:56:14.950Z,1016.78
2018-06-19T10:57:15.002Z,1016.78
2018-06-19T10:58:15.026Z,1016.82
2018-06-19T10:59:15.043Z,1016.79
2018-06-19T11:00:15.025Z,1016.79
2018-06-19T11:01:15.040Z,1016.82
2018-06-19T11:02:15.066Z,1016.86
2018-06-19T11:03:15.078Z,1016.88
2018-06-19T11:04:15.119Z,1016.89
2018-06-19T11:05:15.113Z,1016.81
2018-06-19T11:06:15.123Z,1016.84
2018-06-19T11:07:15.251Z,1016.84
2018-06-19T11:08:15.248Z,1016.77
2018-06-19T11:09:15.249Z,1016.78
2018-06-19T11:10:15.191Z,1016.76
2018-06-19T11:11:15.203Z,1016.74
2018-06-19T11:12:15.221Z,1016.77
2018-06-19T11:13:15.242Z,1016.76
2018-06-19T11:14:15.255Z,1016.78
2018-06-19T11:15:15.401Z,1016.69
2018-06-19T11:16:15.284Z,1016.77
2018-06-19T11:17:15.338Z,1016.76
2018-06-19T11:18:15.303Z,1016.77
2018-06-19T11:19:15.362Z,1016.77
2018-06-19T11:20:15.347Z,1016.74
2018-06-19T11:21:15.873Z,1016.78
2018-06-19T11:22:15.379Z,1016.78
2018-06-19T11:23:15.392Z,1016.86
2018-06-19T11:24:15.444Z,1016.85
2018-06-19T11:25:15.452Z,1016.84
2018-06-19T11:26:15.454Z,1016.88
2018-06-19T11:27:15.510Z,1016.89
2018-06-19T11:28:15.520Z,1016.89
2018-06-19T11:29:15.522Z,1016.80
2018-06-19T11:30:15.548Z,1016.77
2018-06-19T11:31:15.532Z,1016.79
2018-06-19T11:32:15.578Z,1016.76
2018-06-19T11:33:15.582Z,1016.84
2018-06-19T11:34:15.580Z,1016.78
2018-06-19T11:35:15.588Z,1016.78
2018-06-19T11:36:15.639Z,1016.80
2018-06-19T11:37:15.630Z,1016.79
2018-06-19T11:38:15.676Z,1016.81
2018-06-19T11:39:15.709Z,1016.80
2018-06-19T11:40:15.664Z,1016.86
2018-06-19T11:41:15.712Z,1016.78
2018-06-19T11:42:15.802Z,1016.76
2018-06-19T11:43:15.734Z,1016.76
2018-06-19T11:44:15.758Z,1016.76
2018-06-19T11:45:15.835Z,1016.79
2018-06-19T11:46:15.771Z,1016.76
2018-06-19T11:47:15.786Z,1016.74
2018-06-19T11:48:15.800Z,1016.76
2018-06-19T11:49:15.849Z,1016.71
2018-06-19T11:50:15.918Z,1016.81
2018-06-19T11:51:15.879Z,1016.84
2018-06-19T11:52:15.889Z,1016.75
2018-06-19T11:53:15.892Z,1016.77
2018-06-19T11:54:15.892Z,1016.79
2018-06-19T11:55:15.918Z,1016.75
2018-06-19T11:56:15.974Z,1016.78
2018-06-19T11:57:16.000Z,1016.75
2018-06-19T11:58:16.004Z,1016.78
2018-06-19T11:59:15.987Z,1016.76
2018-06-19T12:00:16.012Z,1016.76
2018-06-19T12:01:16.073Z,1016.75
2018-06-19T12:02:16.025Z,1016.73
2018-06-19T12:03:16.071Z,1016.74
2018-06-19T12:04:16.066Z,1016.80
2018-06-19T12:05:16.075Z,1016.70